createdAt,value
2018-12-17T00:00:40.375Z,96943.46
2018-12-17T00:05:41.584Z,96940.31
2018-12-17T00:10:39.661Z,96943.91
2018-12-17T00:15:35.859Z,96939.55
2018-12-17T00:20:30.875Z,96935.02
2018-12-17T00:25:25.645Z,96943.14
2018-12-17T00:30:20.536Z,96945.77
2018-12-17T00:35:16.522Z,96951.35
2018-12-17T00:40:11.551Z,96956.23
2018-12-17T00:45:07.705Z,96963.64
2018-12-17T00:50:04.073Z,96966.64
2018-12-17T00:54:58.995Z,96974.11
2018-12-17T00:59:53.795Z,96981.69
2018-12-17T01:04:48.804Z,96981.23
2018-12-17T01:09:43.651Z,96974.84
2018-12-17T01:14:38.710Z,96983.68
2018-12-17T01:19:33.435Z,96989.05
2018-12-17T01:24:28.223Z,96994.43
2018-12-17T01:29:22.958Z,96994.81
2018-12-17T01:34:17.712Z,97001.14
2018-12-17T01:39:12.499Z,97010.25
2018-12-17T01:44:07.297Z,97021.10
2018-12-17T01:49:02.083Z,97024.77
2018-12-17T01:53:56.824Z,97036.03
2018-12-17T01:58:51.573Z,97028.84
2018-12-17T02:03:46.345Z,97043.84
2018-12-17T02:08:41.256Z,97050.80
2018-12-17T02:13:36.057Z,97042.27
2018-12-17T02:18:30.813Z,97042.83
2018-12-17T02:23:25.547Z,97041.98
2018-12-17T02:28:20.302Z,97042.20
2018-12-17T02:33:15.166Z,97051.45
2018-12-17T02:38:09.991Z,97050.99
2018-12-17T02:43:04.903Z,97054.52
2018-12-17T02:47:59.685Z,97062.09
2018-12-17T02:52:54.653Z,97063.06
2018-12-17T02:57:49.419Z,97063.62
2018-12-17T03:02:44.167Z,97071.53
2018-12-17T03:07:38.908Z,97076.75
2018-12-17T03:12:33.637Z,97092.19
2018-12-17T03:17:28.369Z,97086.47
2018-12-17T03:22:23.133Z,97087.83
2018-12-17T03:27:17.849Z,97096.06
2018-12-17T03:32:12.593Z,97097.73
2018-12-17T03:37:07.455Z,97108.59
2018-12-17T03:42:02.183Z,97124.70
2018-12-17T03:46:56.944Z,97131.67
2018-12-17T03:51:51.696Z,97138.22
2018-12-17T03:56:46.582Z,97145.67
2018-12-17T04:01:41.422Z,97151.73
2018-12-17T04:06:36.208Z,97152.13
2018-12-17T04:11:30.958Z,97159.61
2018-12-17T04:16:25.781Z,97169.72
2018-12-17T04:21:20.848Z,97179.69
2018-12-17T04:26:15.652Z,97188.73
2018-12-17T04:31:10.545Z,97193.05
2018-12-17T04:36:05.306Z,97202.09
2018-12-17T04:41:00.117Z,97207.80
2018-12-17T04:45:54.906Z,97214.79
2018-12-17T04:50:50.667Z,97221.84
2018-12-17T04:55:45.442Z,97231.84
2018-12-17T05:00:40.205Z,97252.69
2018-12-17T05:05:34.889Z,97255.17
2018-12-17T05:10:29.632Z,97259.62
2018-12-17T05:15:24.458Z,97267.84
2018-12-17T05:20:19.172Z,97276.09
2018-12-17T05:25:14.093Z,97288.80
2018-12-17T05:30:09.922Z,97284.23
2018-12-17T05:35:06.699Z,97289.34
2018-12-17T05:40:01.528Z,97305.28
2018-12-17T05:44:56.352Z,97310.42
2018-12-17T05:49:51.149Z,97330.63
2018-12-17T05:54:46.966Z,97330.20
2018-12-17T05:59:41.848Z,97334.50
2018-12-17T06:04:36.654Z,97342.24
2018-12-17T06:09:31.974Z,97358.13
2018-12-17T06:14:30.080Z,97368.06
2018-12-17T06:19:24.925Z,97373.39
2018-12-17T06:24:19.922Z,97376.42
2018-12-17T06:29:14.877Z,97382.09
2018-12-17T06:34:09.840Z,97387.70
2018-12-17T06:39:07.972Z,97398.03
2018-12-17T06:44:02.826Z,97404.03
2018-12-17T06:48:57.591Z,97413.52
2018-12-17T06:53:52.652Z,97423.45
2018-12-17T06:58:47.712Z,97426.92
2018-12-17T07:03:42.684Z,97423.27
2018-12-17T07:08:37.623Z,97422.50
2018-12-17T07:13:33.705Z,97443.20
2018-12-17T07:18:28.562Z,97459.41
2018-12-17T07:23:24.248Z,97471.23
2018-12-17T07:28:19.090Z,97481.23
2018-12-17T07:33:14.024Z,97490.98
2018-12-17T07:38:08.838Z,97495.32
2018-12-17T07:43:03.977Z,97498.75
2018-12-17T07:48:00.287Z,97514.48
2018-12-17T07:52:55.936Z,97531.56
2018-12-17T07:57:50.849Z,97534.86
2018-12-17T08:02:46.815Z,97542.88
2018-12-17T08:07:41.737Z,97553.19
2018-12-17T08:12:38.233Z,97570.69
2018-12-17T08:17:33.122Z,97584.80
2018-12-17T08:22:28.210Z,97595.91
2018-12-17T08:27:23.128Z,97596.23
2018-12-17T08:32:19.274Z,97603.41
2018-12-17T08:37:14.316Z,97614.92
2018-12-17T08:42:10.649Z,97621.64
2018-12-17T08:47:05.634Z,97629.40
2018-12-17T08:52:00.649Z,97639.72
2018-12-17T08:56:55.476Z,97636.28
2018-12-17T09:01:50.413Z,97647.48
2018-12-17T09:06:46.120Z,97662.42
2018-12-17T09:11:44.250Z,97664.94
2018-12-17T09:16:39.134Z,97672.00
2018-12-17T09:21:35.034Z,97690.42
2018-12-17T09:26:30.082Z,97691.32
2018-12-17T09:31:28.330Z,97692.83
2018-12-17T09:36:23.978Z,97690.30
2018-12-17T09:41:21.546Z,97703.66
2018-12-17T09:46:16.865Z,97705.06
2018-12-17T09:51:19.351Z,97709.33
2018-12-17T09:56:11.311Z,97705.38
2018-12-17T10:01:11.119Z,97712.63
2018-12-17T10:06:08.224Z,97717.48
2018-12-17T10:11:05.106Z,97723.90
2018-12-17T10:16:03.112Z,97726.20
2018-12-17T10:21:01.704Z,97721.69
2018-12-17T10:26:15.042Z,97730.08
2018-12-17T10:36:40.603Z,97733.77
2018-12-17T10:41:35.854Z,97722.32
2018-12-17T10:46:30.718Z,97737.78
2018-12-17T10:51:25.618Z,97733.41
2018-12-17T10:56:20.381Z,97737.39
2018-12-17T11:01:20.169Z,97732.23
2018-12-17T11:06:17.374Z,97728.51
2018-12-17T11:11:12.212Z,97722.89
2018-12-17T11:16:08.258Z,97719.33
2018-12-17T11:21:03.054Z,97710.72
2018-12-17T11:25:57.800Z,97716.14
2018-12-17T11:30:52.583Z,97710.52
2018-12-17T11:35:47.415Z,97711.28
2018-12-17T11:40:42.287Z,97709.31
2018-12-17T11:45:37.504Z,97713.12
2018-12-17T11:50:32.421Z,97712.33
2018-12-17T11:55:33.459Z,97715.02
2018-12-17T12:00:31.185Z,97720.61
2018-12-17T12:05:32.693Z,97722.57
2018-12-17T12:10:30.166Z,97724.33
2018-12-17T12:15:25.228Z,97719.09
2018-12-17T12:20:28.501Z,97727.34
2018-12-17T12:25:27.770Z,97728.20
2018-12-17T12:30:33.042Z,97727.73
2018-12-17T12:35:35.380Z,97726.50
2018-12-17T12:40:39.575Z,97726.51
2018-12-17T12:45:44.737Z,97728.26
2018-12-17T12:50:48.441Z,97725.44
2018-12-17T12:55:54.898Z,97725.53
2018-12-17T13:01:07.813Z,97744.73
2018-12-17T13:11:24.340Z,97751.45
2018-12-17T13:16:28.084Z,97762.99
2018-12-17T13:21:36.529Z,97765.81
2018-12-17T13:27:06.485Z,97764.23
2018-12-17T13:32:36.298Z,97765.42
2018-12-17T13:38:07.199Z,97768.47
2018-12-17T13:43:11.100Z,97779.41
2018-12-17T13:48:23.518Z,97781.35
2018-12-17T13:53:43.764Z,97789.78
2018-12-17T14:04:12.480Z,97821.21
2018-12-17T14:09:08.907Z,97827.63
2018-12-17T14:14:03.695Z,97833.45
2018-12-17T14:19:03.559Z,97840.45
2018-12-17T14:23:58.565Z,97844.94
2018-12-17T14:28:53.570Z,97848.02
2018-12-17T14:33:48.656Z,97863.79
2018-12-17T14:38:43.420Z,97861.65
2018-12-17T14:43:38.337Z,97873.08
2018-12-17T14:48:33.208Z,97873.92
2018-12-17T14:53:28.066Z,97882.42
2018-12-17T14:58:22.849Z,97891.50
2018-12-17T15:03:17.656Z,97905.89
2018-12-17T15:08:12.436Z,97907.09
2018-12-17T15:13:07.264Z,97919.78
2018-12-17T15:18:02.191Z,97934.97
2018-12-17T15:22:57.180Z,97950.22
2018-12-17T15:27:52.399Z,97942.95
2018-12-17T15:32:47.479Z,97959.63
2018-12-17T15:37:42.293Z,97981.84
2018-12-17T15:42:40.792Z,97986.95
2018-12-17T15:47:34.121Z,97991.90
2018-12-17T15:52:29.001Z,97994.49
2018-12-17T15:57:23.894Z,97995.39
2018-12-17T16:02:18.793Z,98003.22
2018-12-17T16:07:13.549Z,98000.84
2018-12-17T16:12:08.436Z,98009.70
2018-12-17T16:17:03.356Z,98015.23
2018-12-17T16:21:58.080Z,98019.67
2018-12-17T16:26:59.229Z,98018.52
2018-12-17T16:31:57.341Z,98007.50
2018-12-17T16:36:51.840Z,98013.20
2018-12-17T16:41:47.016Z,98016.50
2018-12-17T16:46:41.936Z,98015.91
2018-12-17T16:51:36.696Z,98030.06
2018-12-17T16:56:31.477Z,98039.63
2018-12-17T17:01:26.249Z,98042.64
2018-12-17T17:06:21.209Z,98050.95
2018-12-17T17:11:17.422Z,98059.08
2018-12-17T17:16:12.558Z,98068.09
2018-12-17T17:21:07.517Z,98085.38
2018-12-17T17:26:02.314Z,98088.36
2018-12-17T17:30:57.080Z,98090.45
2018-12-17T17:35:54.143Z,98089.42
2018-12-17T17:40:48.884Z,98091.38
2018-12-17T17:45:43.782Z,98094.89
2018-12-17T17:50:38.545Z,98106.59
2018-12-17T17:55:33.427Z,98114.53
2018-12-17T18:00:28.869Z,98118.06
2018-12-17T18:05:25.124Z,98123.92
2018-12-17T18:10:19.889Z,98132.05
2018-12-17T18:15:14.747Z,98128.17
2018-12-17T18:20:09.900Z,98138.14
2018-12-17T18:25:05.074Z,98149.06
2018-12-17T18:29:59.829Z,98154.34
2018-12-17T18:34:54.699Z,98152.22
2018-12-17T18:39:50.077Z,98159.59
2018-12-17T18:44:44.819Z,98163.48
2018-12-17T18:49:39.648Z,98171.86
2018-12-17T18:54:34.439Z,98168.59
2018-12-17T18:59:35.277Z,98182.73
2018-12-17T19:04:37.824Z,98185.00
2018-12-17T19:09:33.515Z,98194.81
2018-12-17T19:14:28.421Z,98199.59
2018-12-17T19:19:23.230Z,98203.92
2018-12-17T19:24:21.485Z,98209.27
2018-12-17T19:29:18.440Z,98205.33
2018-12-17T19:39:50.523Z,98209.71
2018-12-17T19:44:56.142Z,98215.36
2018-12-17T19:49:56.506Z,98213.31
2018-12-17T19:55:00.933Z,98219.00
2018-12-17T20:00:02.623Z,98226.37
2018-12-17T20:04:58.868Z,98225.17
2018-12-17T20:09:55.983Z,98228.86
2018-12-17T20:14:50.938Z,98219.29
2018-12-17T20:19:49.969Z,98220.29
2018-12-17T20:24:44.762Z,98211.18
2018-12-17T20:29:39.572Z,98214.45
2018-12-17T20:34:34.900Z,98215.59
2018-12-17T20:39:29.753Z,98219.36
2018-12-17T20:44:24.856Z,98221.91
2018-12-17T20:49:19.716Z,98227.48
2018-12-17T20:54:14.587Z,98231.92
2018-12-17T20:59:09.533Z,98241.94
2018-12-17T21:04:05.261Z,98239.20
2018-12-17T21:09:00.872Z,98238.84
2018-12-17T21:13:55.716Z,98236.70
2018-12-17T21:18:50.711Z,98239.35
2018-12-17T21:23:45.669Z,98241.45
2018-12-17T21:28:40.543Z,98246.67
2018-12-17T21:33:35.448Z,98238.95
2018-12-17T21:38:31.985Z,98250.78
2018-12-17T21:43:26.924Z,98256.00
2018-12-17T21:48:21.984Z,98259.30
2018-12-17T21:53:16.852Z,98250.44
2018-12-17T21:58:11.716Z,98261.63
2018-12-17T22:03:06.544Z,98254.56
2018-12-17T22:08:02.532Z,98251.88
2018-12-17T22:12:58.083Z,98256.20
2018-12-17T22:17:52.895Z,98251.62
2018-12-17T22:22:48.624Z,98258.05
2018-12-17T22:27:43.507Z,98260.73
2018-12-17T22:32:38.545Z,98257.91
2018-12-17T22:37:33.449Z,98263.13
2018-12-17T22:42:29.438Z,98260.17
2018-12-17T22:47:30.175Z,98264.30
2018-12-17T22:52:25.055Z,98262.42
2018-12-17T22:57:19.944Z,98266.88
2018-12-17T23:02:19.001Z,98260.86
2018-12-17T23:07:16.308Z,98256.98
2018-12-17T23:12:27.790Z,98259.16
2018-12-17T23:17:39.273Z,98247.66
2018-12-17T23:22:34.213Z,98247.75
2018-12-17T23:27:29.237Z,98244.48
2018-12-17T23:32:25.889Z,98244.35
2018-12-17T23:37:20.656Z,98238.34
2018-12-17T23:47:44.278Z,98232.48
2018-12-17T23:52:48.326Z,98225.62
2018-12-17T23:58:01.779Z,98229.81
